sensor_id;sensor_type;location;lat;lon;timestamp;P1;durP1;ratioP1;P2;durP2;ratioP2
25331;SDS011;13284;52.748;13.452;2023-08-30T00:01:29;3.10;;;2.80;;
25331;SDS011;13284;52.748;13.452;2023-08-30T00:03:55;5.67;;;2.77;;
25331;SDS011;13284;52.748;13.452;2023-08-30T00:06:20;3.50;;;3.20;;
25331;SDS011;13284;52.748;13.452;2023-08-30T00:08:46;2.60;;;2.40;;
25331;SDS011;13284;52.748;13.452;2023-08-30T00:11:11;3.03;;;2.70;;
25331;SDS011;13284;52.748;13.452;2023-08-30T00:13:37;3.90;;;2.67;;
25331;SDS011;13284;52.748;13.452;2023-08-30T00:16:02;3.63;;;3.33;;
25331;SDS011;13284;52.748;13.452;2023-08-30T00:18:28;3.00;;;2.67;;
25331;SDS011;13284;52.748;13.452;2023-08-30T00:20:54;3.20;;;2.90;;
25331;SDS011;13284;52.748;13.452;2023-08-30T00:23:21;3.27;;;2.93;;
25331;SDS011;13284;52.748;13.452;2023-08-30T00:25:47;2.47;;;2.27;;
25331;SDS011;13284;52.748;13.452;2023-08-30T00:28:13;3.03;;;2.73;;
25331;SDS011;13284;52.748;13.452;2023-08-30T00:30:39;5.53;;;3.00;;
25331;SDS011;13284;52.748;13.452;2023-08-30T00:33:04;4.27;;;3.17;;
25331;SDS011;13284;52.748;13.452;2023-08-30T00:35:30;4.70;;;3.60;;
25331;SDS011;13284;52.748;13.452;2023-08-30T00:37:56;3.40;;;3.10;;
25331;SDS011;13284;52.748;13.452;2023-08-30T00:40:24;3.30;;;3.00;;
25331;SDS011;13284;52.748;13.452;2023-08-30T00:42:50;2.93;;;2.60;;
25331;SDS011;13284;52.748;13.452;2023-08-30T00:45:16;4.23;;;3.33;;
25331;SDS011;13284;52.748;13.452;2023-08-30T00:47:41;3.50;;;2.93;;
25331;SDS011;13284;52.748;13.452;2023-08-30T00:50:07;3.70;;;2.70;;
25331;SDS011;13284;52.748;13.452;2023-08-30T00:52:34;3.33;;;3.00;;
25331;SDS011;13284;52.748;13.452;2023-08-30T00:55:00;3.93;;;3.40;;
25331;SDS011;13284;52.748;13.452;2023-08-30T00:57:26;4.10;;;3.70;;
25331;SDS011;13284;52.748;13.452;2023-08-30T00:59:51;2.77;;;2.57;;
25331;SDS011;13284;52.748;13.452;2023-08-30T01:02:18;2.87;;;2.57;;
25331;SDS011;13284;52.748;13.452;2023-08-30T01:04:44;3.77;;;3.13;;
25331;SDS011;13284;52.748;13.452;2023-08-30T01:07:10;3.83;;;3.10;;
25331;SDS011;13284;52.748;13.452;2023-08-30T01:09:36;3.40;;;3.10;;
25331;SDS011;13284;52.748;13.452;2023-08-30T01:17:23;3.30;;;3.00;;
25331;SDS011;13284;52.748;13.452;2023-08-30T01:19:53;3.67;;;3.37;;
25331;SDS011;13284;52.748;13.452;2023-08-30T01:25:27;3.27;;;2.97;;
25331;SDS011;13284;52.748;13.452;2023-08-30T01:28:14;4.23;;;3.43;;
25331;SDS011;13284;52.748;13.452;2023-08-30T01:33:46;3.60;;;3.30;;
25331;SDS011;13284;52.748;13.452;2023-08-30T01:36:13;3.20;;;3.00;;
25331;SDS011;13284;52.748;13.452;2023-08-30T01:38:39;3.30;;;3.00;;
25331;SDS011;13284;52.748;13.452;2023-08-30T01:41:05;3.60;;;3.30;;
25331;SDS011;13284;52.748;13.452;2023-08-30T01:43:31;3.70;;;3.23;;
25331;SDS011;13284;52.748;13.452;2023-08-30T01:45:58;3.50;;;3.20;;
25331;SDS011;13284;52.748;13.452;2023-08-30T01:48:26;3.17;;;2.97;;
25331;SDS011;13284;52.748;13.452;2023-08-30T01:50:52;3.60;;;3.17;;
25331;SDS011;13284;52.748;13.452;2023-08-30T01:53:23;3.23;;;2.93;;
25331;SDS011;13284;52.748;13.452;2023-08-30T01:55:49;3.83;;;3.53;;
25331;SDS011;13284;52.748;13.452;2023-08-30T01:58:15;4.03;;;3.63;;
25331;SDS011;13284;52.748;13.452;2023-08-30T02:00:41;4.20;;;3.40;;
25331;SDS011;13284;52.748;13.452;2023-08-30T02:03:07;2.83;;;2.53;;
25331;SDS011;13284;52.748;13.452;2023-08-30T02:05:35;2.97;;;2.73;;
25331;SDS011;13284;52.748;13.452;2023-08-30T02:08:05;4.73;;;3.30;;
25331;SDS011;13284;52.748;13.452;2023-08-30T02:10:39;3.63;;;3.20;;
25331;SDS011;13284;52.748;13.452;2023-08-30T02:13:08;4.10;;;3.67;;
25331;SDS011;13284;52.748;13.452;2023-08-30T02:15:37;3.77;;;3.37;;
25331;SDS011;13284;52.748;13.452;2023-08-30T02:18:06;3.00;;;2.80;;
25331;SDS011;13284;52.748;13.452;2023-08-30T02:20:33;3.70;;;3.30;;
25331;SDS011;13284;52.748;13.452;2023-08-30T02:22:58;3.90;;;3.60;;
25331;SDS011;13284;52.748;13.452;2023-08-30T02:25:24;4.30;;;3.60;;
25331;SDS011;13284;52.748;13.452;2023-08-30T02:27:50;3.60;;;3.10;;
25331;SDS011;13284;52.748;13.452;2023-08-30T02:30:16;3.20;;;3.00;;
25331;SDS011;13284;52.748;13.452;2023-08-30T02:32:42;4.50;;;2.90;;
25331;SDS011;13284;52.748;13.452;2023-08-30T02:35:07;3.33;;;3.03;;
25331;SDS011;13284;52.748;13.452;2023-08-30T02:37:33;3.90;;;3.60;;
25331;SDS011;13284;52.748;13.452;2023-08-30T02:39:58;4.23;;;3.17;;
25331;SDS011;13284;52.748;13.452;2023-08-30T02:42:24;3.80;;;3.10;;
25331;SDS011;13284;52.748;13.452;2023-08-30T02:44:51;3.30;;;3.00;;
25331;SDS011;13284;52.748;13.452;2023-08-30T02:47:16;3.60;;;3.30;;
25331;SDS011;13284;52.748;13.452;2023-08-30T02:49:42;3.43;;;3.13;;
25331;SDS011;13284;52.748;13.452;2023-08-30T02:52:08;5.23;;;3.77;;
25331;SDS011;13284;52.748;13.452;2023-08-30T02:54:33;4.20;;;3.90;;
25331;SDS011;13284;52.748;13.452;2023-08-30T02:56:59;2.90;;;2.50;;
25331;SDS011;13284;52.748;13.452;2023-08-30T02:59:25;3.93;;;3.60;;
25331;SDS011;13284;52.748;13.452;2023-08-30T03:01:50;3.60;;;3.17;;
25331;SDS011;13284;52.748;13.452;2023-08-30T03:04:16;6.70;;;3.57;;
25331;SDS011;13284;52.748;13.452;2023-08-30T03:06:41;3.83;;;3.40;;
25331;SDS011;13284;52.748;13.452;2023-08-30T03:09:07;3.93;;;3.53;;
25331;SDS011;13284;52.748;13.452;2023-08-30T03:11:33;3.70;;;3.40;;
25331;SDS011;13284;52.748;13.452;2023-08-30T03:13:58;3.63;;;3.33;;
25331;SDS011;13284;52.748;13.452;2023-08-30T03:16:24;3.67;;;3.37;;
25331;SDS011;13284;52.748;13.452;2023-08-30T03:18:49;4.20;;;3.90;;
25331;SDS011;13284;52.748;13.452;2023-08-30T03:21:15;4.97;;;3.57;;
25331;SDS011;13284;52.748;13.452;2023-08-30T03:23:41;5.57;;;4.20;;
25331;SDS011;13284;52.748;13.452;2023-08-30T03:26:13;4.17;;;3.67;;
25331;SDS011;13284;52.748;13.452;2023-08-30T03:28:40;4.10;;;3.70;;
25331;SDS011;13284;52.748;13.452;2023-08-30T03:31:13;5.10;;;4.27;;
25331;SDS011;13284;52.748;13.452;2023-08-30T03:33:43;8.30;;;5.17;;
25331;SDS011;13284;52.748;13.452;2023-08-30T03:36:12;3.97;;;3.50;;
25331;SDS011;13284;52.748;13.452;2023-08-30T03:38:39;6.40;;;4.00;;
25331;SDS011;13284;52.748;13.452;2023-08-30T03:41:06;4.07;;;3.73;;
25331;SDS011;13284;52.748;13.452;2023-08-30T03:43:32;6.07;;;4.27;;
25331;SDS011;13284;52.748;13.452;2023-08-30T03:45:59;5.33;;;3.90;;
25331;SDS011;13284;52.748;13.452;2023-08-30T03:48:26;4.80;;;4.30;;
25331;SDS011;13284;52.748;13.452;2023-08-30T03:50:52;5.87;;;4.40;;
25331;SDS011;13284;52.748;13.452;2023-08-30T03:53:18;5.60;;;4.20;;
25331;SDS011;13284;52.748;13.452;2023-08-30T03:55:43;7.33;;;4.90;;
25331;SDS011;13284;52.748;13.452;2023-08-30T03:58:09;5.30;;;4.80;;
25331;SDS011;13284;52.748;13.452;2023-08-30T04:00:38;4.30;;;4.00;;
25331;SDS011;13284;52.748;13.452;2023-08-30T04:03:04;4.87;;;4.47;;
25331;SDS011;13284;52.748;13.452;2023-08-30T04:05:34;6.40;;;4.80;;
25331;SDS011;13284;52.748;13.452;2023-08-30T04:08:01;5.00;;;4.30;;
25331;SDS011;13284;52.748;13.452;2023-08-30T04:10:28;4.73;;;4.23;;
25331;SDS011;13284;52.748;13.452;2023-08-30T04:12:53;5.30;;;4.80;;
25331;SDS011;13284;52.748;13.452;2023-08-30T04:15:19;4.93;;;4.20;;
25331;SDS011;13284;52.748;13.452;2023-08-30T04:17:44;4.80;;;4.30;;
25331;SDS011;13284;52.748;13.452;2023-08-30T04:20:10;5.40;;;4.90;;
25331;SDS011;13284;52.748;13.452;2023-08-30T04:22:36;5.20;;;4.60;;
25331;SDS011;13284;52.748;13.452;2023-08-30T04:25:02;5.37;;;4.87;;
25331;SDS011;13284;52.748;13.452;2023-08-30T04:27:28;7.27;;;6.50;;
25331;SDS011;13284;52.748;13.452;2023-08-30T04:29:54;6.57;;;4.63;;
25331;SDS011;13284;52.748;13.452;2023-08-30T04:32:19;10.87;;;9.40;;
25331;SDS011;13284;52.748;13.452;2023-08-30T04:34:45;5.70;;;4.60;;
25331;SDS011;13284;52.748;13.452;2023-08-30T04:37:10;6.87;;;5.67;;
25331;SDS011;13284;52.748;13.452;2023-08-30T04:39:36;5.57;;;4.80;;
25331;SDS011;13284;52.748;13.452;2023-08-30T04:42:01;10.43;;;5.30;;
25331;SDS011;13284;52.748;13.452;2023-08-30T04:44:28;6.20;;;5.60;;
25331;SDS011;13284;52.748;13.452;2023-08-30T04:46:54;6.87;;;4.73;;
25331;SDS011;13284;52.748;13.452;2023-08-30T04:49:20;7.20;;;5.47;;
25331;SDS011;13284;52.748;13.452;2023-08-30T04:51:46;6.17;;;5.00;;
25331;SDS011;13284;52.748;13.452;2023-08-30T04:54:12;7.23;;;5.67;;
25331;SDS011;13284;52.748;13.452;2023-08-30T04:56:38;7.00;;;5.90;;
25331;SDS011;13284;52.748;13.452;2023-08-30T04:59:03;8.43;;;5.50;;
25331;SDS011;13284;52.748;13.452;2023-08-30T05:01:29;6.57;;;5.97;;
25331;SDS011;13284;52.748;13.452;2023-08-30T05:03:55;5.60;;;5.10;;
25331;SDS011;13284;52.748;13.452;2023-08-30T05:06:21;6.07;;;5.47;;
25331;SDS011;13284;52.748;13.452;2023-08-30T05:08:46;5.60;;;4.93;;
25331;SDS011;13284;52.748;13.452;2023-08-30T05:11:12;7.07;;;5.77;;
25331;SDS011;13284;52.748;13.452;2023-08-30T05:13:37;7.47;;;6.70;;
25331;SDS011;13284;52.748;13.452;2023-08-30T05:16:03;7.73;;;5.73;;
25331;SDS011;13284;52.748;13.452;2023-08-30T05:18:29;6.17;;;5.57;;
25331;SDS011;13284;52.748;13.452;2023-08-30T05:20:54;5.80;;;5.10;;
25331;SDS011;13284;52.748;13.452;2023-08-30T05:23:20;7.17;;;6.20;;
25331;SDS011;13284;52.748;13.452;2023-08-30T05:25:45;6.17;;;5.57;;
25331;SDS011;13284;52.748;13.452;2023-08-30T05:28:11;7.57;;;6.73;;
25331;SDS011;13284;52.748;13.452;2023-08-30T05:30:39;6.53;;;5.93;;
25331;SDS011;13284;52.748;13.452;2023-08-30T05:33:06;7.03;;;6.33;;
25331;SDS011;13284;52.748;13.452;2023-08-30T05:35:32;6.47;;;5.57;;
25331;SDS011;13284;52.748;13.452;2023-08-30T05:37:57;7.33;;;6.07;;
25331;SDS011;13284;52.748;13.452;2023-08-30T05:40:23;6.20;;;5.60;;
25331;SDS011;13284;52.748;13.452;2023-08-30T05:42:49;7.03;;;6.33;;
25331;SDS011;13284;52.748;13.452;2023-08-30T05:45:15;6.33;;;5.73;;
25331;SDS011;13284;52.748;13.452;2023-08-30T05:47:41;6.93;;;5.50;;
25331;SDS011;13284;52.748;13.452;2023-08-30T05:50:06;6.23;;;5.60;;
25331;SDS011;13284;52.748;13.452;2023-08-30T05:52:32;6.50;;;5.90;;
25331;SDS011;13284;52.748;13.452;2023-08-30T05:54:58;7.30;;;6.13;;
25331;SDS011;13284;52.748;13.452;2023-08-30T05:57:24;6.97;;;6.27;;
25331;SDS011;13284;52.748;13.452;2023-08-30T05:59:50;7.20;;;6.50;;
25331;SDS011;13284;52.748;13.452;2023-08-30T06:02:16;7.10;;;6.40;;
25331;SDS011;13284;52.748;13.452;2023-08-30T06:04:41;6.33;;;5.73;;
25331;SDS011;13284;52.748;13.452;2023-08-30T06:07:07;6.73;;;6.00;;
25331;SDS011;13284;52.748;13.452;2023-08-30T06:09:33;7.40;;;5.60;;
25331;SDS011;13284;52.748;13.452;2023-08-30T06:11:59;5.90;;;5.37;;
25331;SDS011;13284;52.748;13.452;2023-08-30T06:14:24;10.57;;;7.20;;
25331;SDS011;13284;52.748;13.452;2023-08-30T06:16:49;7.40;;;6.60;;
25331;SDS011;13284;52.748;13.452;2023-08-30T06:19:15;6.43;;;5.83;;
25331;SDS011;13284;52.748;13.452;2023-08-30T06:21:40;6.40;;;5.57;;
25331;SDS011;13284;52.748;13.452;2023-08-30T06:24:06;6.90;;;6.20;;
25331;SDS011;13284;52.748;13.452;2023-08-30T06:26:32;6.47;;;5.83;;
25331;SDS011;13284;52.748;13.452;2023-08-30T06:28:57;7.17;;;6.13;;
25331;SDS011;13284;52.748;13.452;2023-08-30T06:31:23;6.20;;;5.60;;
25331;SDS011;13284;52.748;13.452;2023-08-30T06:33:49;6.87;;;5.60;;
25331;SDS011;13284;52.748;13.452;2023-08-30T06:36:15;6.20;;;5.67;;
25331;SDS011;13284;52.748;13.452;2023-08-30T06:38:42;5.63;;;5.13;;
25331;SDS011;13284;52.748;13.452;2023-08-30T06:41:08;5.67;;;5.07;;
25331;SDS011;13284;52.748;13.452;2023-08-30T06:43:33;5.80;;;5.20;;
25331;SDS011;13284;52.748;13.452;2023-08-30T06:45:59;5.33;;;4.77;;
25331;SDS011;13284;52.748;13.452;2023-08-30T06:48:25;8.13;;;4.90;;
25331;SDS011;13284;52.748;13.452;2023-08-30T06:50:51;5.67;;;4.87;;
25331;SDS011;13284;52.748;13.452;2023-08-30T06:53:16;5.47;;;4.90;;
25331;SDS011;13284;52.748;13.452;2023-08-30T06:55:42;8.17;;;5.67;;
25331;SDS011;13284;52.748;13.452;2023-08-30T06:58:07;5.47;;;4.97;;
25331;SDS011;13284;52.748;13.452;2023-08-30T07:00:33;4.90;;;4.50;;
25331;SDS011;13284;52.748;13.452;2023-08-30T07:02:58;4.70;;;4.30;;
25331;SDS011;13284;52.748;13.452;2023-08-30T07:05:24;5.70;;;5.10;;
25331;SDS011;13284;52.748;13.452;2023-08-30T07:07:49;5.97;;;4.87;;
25331;SDS011;13284;52.748;13.452;2023-08-30T07:10:15;5.47;;;4.97;;
25331;SDS011;13284;52.748;13.452;2023-08-30T07:12:40;5.07;;;4.57;;
25331;SDS011;13284;52.748;13.452;2023-08-30T07:15:06;6.23;;;5.20;;
25331;SDS011;13284;52.748;13.452;2023-08-30T07:17:32;5.10;;;4.40;;
25331;SDS011;13284;52.748;13.452;2023-08-30T07:19:57;5.43;;;4.93;;
25331;SDS011;13284;52.748;13.452;2023-08-30T07:22:23;5.20;;;4.70;;
25331;SDS011;13284;52.748;13.452;2023-08-30T07:24:49;5.37;;;4.30;;
25331;SDS011;13284;52.748;13.452;2023-08-30T07:27:14;4.50;;;4.10;;
25331;SDS011;13284;52.748;13.452;2023-08-30T07:29:40;4.53;;;4.13;;
25331;SDS011;13284;52.748;13.452;2023-08-30T07:32:06;4.53;;;4.13;;
25331;SDS011;13284;52.748;13.452;2023-08-30T07:34:32;3.90;;;3.60;;
25331;SDS011;13284;52.748;13.452;2023-08-30T07:36:57;5.77;;;5.17;;
25331;SDS011;13284;52.748;13.452;2023-08-30T07:39:23;7.03;;;4.17;;
25331;SDS011;13284;52.748;13.452;2023-08-30T07:41:48;4.67;;;3.87;;
25331;SDS011;13284;52.748;13.452;2023-08-30T07:44:14;8.77;;;5.60;;
25331;SDS011;13284;52.748;13.452;2023-08-30T07:46:39;8.27;;;5.00;;
25331;SDS011;13284;52.748;13.452;2023-08-30T07:49:05;4.60;;;4.20;;
25331;SDS011;13284;52.748;13.452;2023-08-30T07:51:30;4.60;;;4.20;;
25331;SDS011;13284;52.748;13.452;2023-08-30T07:53:56;4.13;;;3.77;;
25331;SDS011;13284;52.748;13.452;2023-08-30T07:56:21;4.67;;;3.87;;
25331;SDS011;13284;52.748;13.452;2023-08-30T07:58:47;3.30;;;3.00;;
25331;SDS011;13284;52.748;13.452;2023-08-30T08:01:12;5.63;;;3.60;;
25331;SDS011;13284;52.748;13.452;2023-08-30T08:03:38;4.07;;;3.73;;
25331;SDS011;13284;52.748;13.452;2023-08-30T08:06:03;4.97;;;3.23;;
25331;SDS011;13284;52.748;13.452;2023-08-30T08:08:29;4.43;;;3.53;;
25331;SDS011;13284;52.748;13.452;2023-08-30T08:10:54;3.10;;;2.80;;
25331;SDS011;13284;52.748;13.452;2023-08-30T08:13:20;4.67;;;3.13;;
25331;SDS011;13284;52.748;13.452;2023-08-30T08:15:45;4.83;;;3.20;;
25331;SDS011;13284;52.748;13.452;2023-08-30T08:18:11;3.20;;;2.90;;
25331;SDS011;13284;52.748;13.452;2023-08-30T08:20:36;4.00;;;3.27;;
25331;SDS011;13284;52.748;13.452;2023-08-30T08:23:04;3.77;;;2.80;;
25331;SDS011;13284;52.748;13.452;2023-08-30T08:25:29;3.97;;;3.57;;
25331;SDS011;13284;52.748;13.452;2023-08-30T08:27:55;3.10;;;2.87;;
25331;SDS011;13284;52.748;13.452;2023-08-30T08:30:21;3.30;;;3.00;;
25331;SDS011;13284;52.748;13.452;2023-08-30T08:32:47;3.27;;;2.87;;
25331;SDS011;13284;52.748;13.452;2023-08-30T08:35:13;3.70;;;3.13;;
25331;SDS011;13284;52.748;13.452;2023-08-30T08:37:38;3.30;;;3.10;;
25331;SDS011;13284;52.748;13.452;2023-08-30T08:40:04;3.73;;;3.20;;
25331;SDS011;13284;52.748;13.452;2023-08-30T08:42:33;3.07;;;2.87;;
25331;SDS011;13284;52.748;13.452;2023-08-30T08:44:59;2.80;;;2.60;;
25331;SDS011;13284;52.748;13.452;2023-08-30T08:47:30;2.90;;;2.60;;
25331;SDS011;13284;52.748;13.452;2023-08-30T08:49:56;2.97;;;2.67;;
25331;SDS011;13284;52.748;13.452;2023-08-30T08:52:23;2.40;;;2.20;;
25331;SDS011;13284;52.748;13.452;2023-08-30T08:54:49;2.73;;;2.53;;
25331;SDS011;13284;52.748;13.452;2023-08-30T08:57:15;3.37;;;2.40;;
25331;SDS011;13284;52.748;13.452;2023-08-30T08:59:41;5.70;;;2.90;;
25331;SDS011;13284;52.748;13.452;2023-08-30T09:02:07;3.67;;;2.37;;
25331;SDS011;13284;52.748;13.452;2023-08-30T09:04:33;3.30;;;3.00;;
25331;SDS011;13284;52.748;13.452;2023-08-30T09:06:59;3.40;;;2.57;;
25331;SDS011;13284;52.748;13.452;2023-08-30T09:09:25;2.77;;;2.30;;
25331;SDS011;13284;52.748;13.452;2023-08-30T09:11:51;3.70;;;2.80;;
25331;SDS011;13284;52.748;13.452;2023-08-30T09:14:17;3.07;;;2.73;;
25331;SDS011;13284;52.748;13.452;2023-08-30T09:16:53;4.30;;;3.00;;
25331;SDS011;13284;52.748;13.452;2023-08-30T09:19:23;3.93;;;2.80;;
25331;SDS011;13284;52.748;13.452;2023-08-30T09:21:52;2.97;;;2.73;;
25331;SDS011;13284;52.748;13.452;2023-08-30T09:24:18;7.13;;;5.70;;
25331;SDS011;13284;52.748;13.452;2023-08-30T09:26:46;3.80;;;2.60;;
25331;SDS011;13284;52.748;13.452;2023-08-30T09:29:14;2.67;;;2.47;;
25331;SDS011;13284;52.748;13.452;2023-08-30T09:31:42;2.87;;;2.67;;
25331;SDS011;13284;52.748;13.452;2023-08-30T09:34:07;3.20;;;2.73;;
25331;SDS011;13284;52.748;13.452;2023-08-30T09:36:40;3.37;;;2.77;;
25331;SDS011;13284;52.748;13.452;2023-08-30T09:39:13;4.60;;;2.70;;
25331;SDS011;13284;52.748;13.452;2023-08-30T09:41:43;4.70;;;3.60;;
25331;SDS011;13284;52.748;13.452;2023-08-30T09:44:14;2.73;;;2.53;;
25331;SDS011;13284;52.748;13.452;2023-08-30T09:49:10;3.07;;;2.00;;
25331;SDS011;13284;52.748;13.452;2023-08-30T09:51:37;3.80;;;2.33;;
25331;SDS011;13284;52.748;13.452;2023-08-30T09:54:13;2.60;;;2.10;;
25331;SDS011;13284;52.748;13.452;2023-08-30T09:56:46;2.20;;;2.00;;
25331;SDS011;13284;52.748;13.452;2023-08-30T09:59:12;2.70;;;2.50;;
25331;SDS011;13284;52.748;13.452;2023-08-30T10:01:39;3.63;;;2.20;;
25331;SDS011;13284;52.748;13.452;2023-08-30T10:04:07;3.30;;;2.23;;
25331;SDS011;13284;52.748;13.452;2023-08-30T10:06:38;2.97;;;2.00;;
25331;SDS011;13284;52.748;13.452;2023-08-30T10:09:05;2.43;;;2.10;;
25331;SDS011;13284;52.748;13.452;2023-08-30T10:11:33;2.70;;;2.50;;
25331;SDS011;13284;52.748;13.452;2023-08-30T10:14:00;1.83;;;1.73;;
25331;SDS011;13284;52.748;13.452;2023-08-30T10:16:43;3.20;;;1.63;;
25331;SDS011;13284;52.748;13.452;2023-08-30T10:19:11;3.53;;;2.77;;
25331;SDS011;13284;52.748;13.452;2023-08-30T10:21:42;2.60;;;2.17;;
25331;SDS011;13284;52.748;13.452;2023-08-30T10:24:08;1.90;;;1.70;;
25331;SDS011;13284;52.748;13.452;2023-08-30T10:26:36;2.30;;;2.10;;
25331;SDS011;13284;52.748;13.452;2023-08-30T10:29:04;2.33;;;2.13;;
25331;SDS011;13284;52.748;13.452;2023-08-30T10:31:30;2.33;;;1.60;;
25331;SDS011;13284;52.748;13.452;2023-08-30T10:33:56;3.33;;;1.63;;
25331;SDS011;13284;52.748;13.452;2023-08-30T10:36:22;1.70;;;1.20;;
25331;SDS011;13284;52.748;13.452;2023-08-30T10:38:52;1.50;;;1.40;;
25331;SDS011;13284;52.748;13.452;2023-08-30T10:41:22;1.70;;;1.60;;
25331;SDS011;13284;52.748;13.452;2023-08-30T10:43:49;1.40;;;1.30;;
25331;SDS011;13284;52.748;13.452;2023-08-30T10:46:32;1.17;;;1.10;;
25331;SDS011;13284;52.748;13.452;2023-08-30T10:49:12;2.30;;;1.43;;
25331;SDS011;13284;52.748;13.452;2023-08-30T10:51:39;2.40;;;1.30;;
25331;SDS011;13284;52.748;13.452;2023-08-30T10:54:15;1.90;;;1.80;;
25331;SDS011;13284;52.748;13.452;2023-08-30T10:56:45;1.87;;;1.40;;
25331;SDS011;13284;52.748;13.452;2023-08-30T10:59:20;1.43;;;1.00;;
25331;SDS011;13284;52.748;13.452;2023-08-30T11:01:47;1.47;;;1.13;;
25331;SDS011;13284;52.748;13.452;2023-08-30T11:04:16;1.30;;;1.20;;
25331;SDS011;13284;52.748;13.452;2023-08-30T11:06:43;1.07;;;0.97;;
25331;SDS011;13284;52.748;13.452;2023-08-30T11:09:12;1.27;;;1.13;;
25331;SDS011;13284;52.748;13.452;2023-08-30T11:11:44;1.17;;;1.07;;
25331;SDS011;13284;52.748;13.452;2023-08-30T11:14:13;1.10;;;1.00;;
25331;SDS011;13284;52.748;13.452;2023-08-30T11:16:40;3.50;;;1.53;;
25331;SDS011;13284;52.748;13.452;2023-08-30T11:19:06;1.63;;;1.47;;
25331;SDS011;13284;52.748;13.452;2023-08-30T11:21:34;1.13;;;1.07;;
25331;SDS011;13284;52.748;13.452;2023-08-30T11:24:02;1.30;;;1.10;;
25331;SDS011;13284;52.748;13.452;2023-08-30T11:26:31;1.23;;;1.13;;
25331;SDS011;13284;52.748;13.452;2023-08-30T11:28:56;1.20;;;1.10;;
25331;SDS011;13284;52.748;13.452;2023-08-30T11:31:23;1.37;;;1.27;;
25331;SDS011;13284;52.748;13.452;2023-08-30T11:33:52;1.10;;;1.10;;
25331;SDS011;13284;52.748;13.452;2023-08-30T11:36:21;2.17;;;1.00;;
25331;SDS011;13284;52.748;13.452;2023-08-30T11:38:47;2.40;;;1.30;;
25331;SDS011;13284;52.748;13.452;2023-08-30T11:41:14;1.27;;;0.87;;
25331;SDS011;13284;52.748;13.452;2023-08-30T11:43:40;1.33;;;1.23;;
25331;SDS011;13284;52.748;13.452;2023-08-30T11:46:05;1.10;;;1.07;;
25331;SDS011;13284;52.748;13.452;2023-08-30T11:48:31;1.20;;;1.13;;
25331;SDS011;13284;52.748;13.452;2023-08-30T11:50:58;1.33;;;1.13;;
25331;SDS011;13284;52.748;13.452;2023-08-30T11:53:24;1.10;;;1.10;;
25331;SDS011;13284;52.748;13.452;2023-08-30T11:55:50;1.47;;;1.23;;
25331;SDS011;13284;52.748;13.452;2023-08-30T11:58:17;3.67;;;1.30;;
25331;SDS011;13284;52.748;13.452;2023-08-30T12:00:43;0.90;;;0.80;;
25331;SDS011;13284;52.748;13.452;2023-08-30T12:03:12;0.87;;;0.87;;
25331;SDS011;13284;52.748;13.452;2023-08-30T12:05:46;1.00;;;0.90;;
25331;SDS011;13284;52.748;13.452;2023-08-30T12:08:23;1.17;;;1.07;;
25331;SDS011;13284;52.748;13.452;2023-08-30T12:10:53;0.77;;;0.77;;
25331;SDS011;13284;52.748;13.452;2023-08-30T12:13:26;0.90;;;0.90;;
25331;SDS011;13284;52.748;13.452;2023-08-30T12:15:53;1.90;;;1.20;;
25331;SDS011;13284;52.748;13.452;2023-08-30T12:18:24;1.47;;;1.10;;
25331;SDS011;13284;52.748;13.452;2023-08-30T12:20:53;1.10;;;1.00;;
25331;SDS011;13284;52.748;13.452;2023-08-30T12:23:20;1.30;;;1.20;;
25331;SDS011;13284;52.748;13.452;2023-08-30T12:26:06;0.90;;;0.90;;
25331;SDS011;13284;52.748;13.452;2023-08-30T12:28:33;2.10;;;1.40;;
25331;SDS011;13284;52.748;13.452;2023-08-30T12:31:00;1.20;;;1.10;;
25331;SDS011;13284;52.748;13.452;2023-08-30T12:33:25;0.97;;;0.97;;
25331;SDS011;13284;52.748;13.452;2023-08-30T12:35:52;1.17;;;1.07;;
25331;SDS011;13284;52.748;13.452;2023-08-30T12:38:17;1.50;;;1.40;;
25331;SDS011;13284;52.748;13.452;2023-08-30T12:40:47;1.37;;;1.27;;
25331;SDS011;13284;52.748;13.452;2023-08-30T12:43:13;2.20;;;1.27;;
25331;SDS011;13284;52.748;13.452;2023-08-30T12:45:40;1.17;;;1.17;;
25331;SDS011;13284;52.748;13.452;2023-08-30T12:48:09;2.03;;;1.23;;
25331;SDS011;13284;52.748;13.452;2023-08-30T12:50:36;2.00;;;1.00;;
25331;SDS011;13284;52.748;13.452;2023-08-30T12:53:03;0.90;;;0.90;;
25331;SDS011;13284;52.748;13.452;2023-08-30T12:55:31;0.93;;;0.93;;
25331;SDS011;13284;52.748;13.452;2023-08-30T12:57:57;1.60;;;1.40;;
25331;SDS011;13284;52.748;13.452;2023-08-30T13:00:23;3.27;;;2.73;;
25331;SDS011;13284;52.748;13.452;2023-08-30T13:02:49;1.20;;;1.10;;
25331;SDS011;13284;52.748;13.452;2023-08-30T13:05:15;1.97;;;1.10;;
25331;SDS011;13284;52.748;13.452;2023-08-30T13:07:40;1.70;;;1.20;;
25331;SDS011;13284;52.748;13.452;2023-08-30T13:10:07;4.27;;;1.47;;
25331;SDS011;13284;52.748;13.452;2023-08-30T13:12:32;1.77;;;1.30;;
25331;SDS011;13284;52.748;13.452;2023-08-30T13:14:58;1.40;;;1.30;;
25331;SDS011;13284;52.748;13.452;2023-08-30T13:17:23;1.67;;;1.40;;
25331;SDS011;13284;52.748;13.452;2023-08-30T13:19:49;1.40;;;1.30;;
25331;SDS011;13284;52.748;13.452;2023-08-30T13:22:15;1.47;;;1.37;;
25331;SDS011;13284;52.748;13.452;2023-08-30T13:24:41;2.00;;;1.30;;
25331;SDS011;13284;52.748;13.452;2023-08-30T13:27:07;3.33;;;1.27;;
25331;SDS011;13284;52.748;13.452;2023-08-30T13:29:32;1.50;;;1.40;;
25331;SDS011;13284;52.748;13.452;2023-08-30T13:31:58;1.40;;;1.30;;
25331;SDS011;13284;52.748;13.452;2023-08-30T13:34:23;1.47;;;1.17;;
25331;SDS011;13284;52.748;13.452;2023-08-30T13:36:49;11.20;;;6.47;;
25331;SDS011;13284;52.748;13.452;2023-08-30T13:39:14;5.17;;;2.20;;
25331;SDS011;13284;52.748;13.452;2023-08-30T13:41:40;2.23;;;2.03;;
25331;SDS011;13284;52.748;13.452;2023-08-30T13:44:05;1.50;;;1.23;;
25331;SDS011;13284;52.748;13.452;2023-08-30T13:46:31;1.60;;;1.50;;
25331;SDS011;13284;52.748;13.452;2023-08-30T13:48:57;1.33;;;1.23;;
25331;SDS011;13284;52.748;13.452;2023-08-30T13:51:26;2.03;;;1.50;;
25331;SDS011;13284;52.748;13.452;2023-08-30T13:53:51;1.20;;;1.10;;
25331;SDS011;13284;52.748;13.452;2023-08-30T13:56:18;1.83;;;1.27;;
25331;SDS011;13284;52.748;13.452;2023-08-30T13:58:44;5.60;;;2.10;;
25331;SDS011;13284;52.748;13.452;2023-08-30T14:01:10;1.33;;;1.23;;
25331;SDS011;13284;52.748;13.452;2023-08-30T14:03:36;1.13;;;1.03;;
25331;SDS011;13284;52.748;13.452;2023-08-30T14:06:01;1.00;;;1.00;;
25331;SDS011;13284;52.748;13.452;2023-08-30T14:08:27;1.07;;;1.00;;
25331;SDS011;13284;52.748;13.452;2023-08-30T14:10:54;1.53;;;1.43;;
25331;SDS011;13284;52.748;13.452;2023-08-30T14:13:20;1.93;;;1.20;;
25331;SDS011;13284;52.748;13.452;2023-08-30T14:15:46;1.40;;;1.30;;
25331;SDS011;13284;52.748;13.452;2023-08-30T14:18:11;1.23;;;1.10;;
25331;SDS011;13284;52.748;13.452;2023-08-30T14:20:37;1.17;;;0.90;;
25331;SDS011;13284;52.748;13.452;2023-08-30T14:23:03;1.07;;;1.07;;
25331;SDS011;13284;52.748;13.452;2023-08-30T14:25:28;1.30;;;1.20;;
25331;SDS011;13284;52.748;13.452;2023-08-30T14:27:54;1.87;;;1.27;;
25331;SDS011;13284;52.748;13.452;2023-08-30T14:30:20;1.10;;;1.00;;
25331;SDS011;13284;52.748;13.452;2023-08-30T14:32:45;1.33;;;1.23;;
25331;SDS011;13284;52.748;13.452;2023-08-30T14:35:11;2.83;;;1.23;;
25331;SDS011;13284;52.748;13.452;2023-08-30T14:37:37;1.40;;;1.13;;
25331;SDS011;13284;52.748;13.452;2023-08-30T14:40:03;2.60;;;1.00;;
25331;SDS011;13284;52.748;13.452;2023-08-30T14:42:29;1.70;;;1.60;;
25331;SDS011;13284;52.748;13.452;2023-08-30T14:44:54;2.20;;;1.37;;